sensor_id;sensor_type;location;lat;lon;timestamp;P1;durP1;ratioP1;P2;durP2;ratioP2
34060;SDS011;20336;-33.424;-70.638;2023-12-29T00:01:37;15.38;;;7.80;;
34060;SDS011;20336;-33.424;-70.638;2023-12-29T00:04:04;20.77;;;8.38;;
34060;SDS011;20336;-33.424;-70.638;2023-12-29T00:06:31;18.45;;;7.95;;
34060;SDS011;20336;-33.424;-70.638;2023-12-29T00:08:58;20.48;;;9.05;;
34060;SDS011;20336;-33.424;-70.638;2023-12-29T00:11:25;17.23;;;8.43;;
34060;SDS011;20336;-33.424;-70.638;2023-12-29T00:13:52;15.57;;;8.60;;
34060;SDS011;20336;-33.424;-70.638;2023-12-29T00:16:19;23.27;;;9.65;;
34060;SDS011;20336;-33.424;-70.638;2023-12-29T00:18:46;19.77;;;8.52;;
34060;SDS011;20336;-33.424;-70.638;2023-12-29T00:21:13;21.23;;;9.60;;
34060;SDS011;20336;-33.424;-70.638;2023-12-29T00:23:40;17.13;;;8.25;;
34060;SDS011;20336;-33.424;-70.638;2023-12-29T00:26:07;18.95;;;8.30;;
34060;SDS011;20336;-33.424;-70.638;2023-12-29T00:28:34;19.80;;;9.38;;
34060;SDS011;20336;-33.424;-70.638;2023-12-29T00:31:06;21.05;;;8.45;;
34060;SDS011;20336;-33.424;-70.638;2023-12-29T00:33:33;21.38;;;9.25;;
34060;SDS011;20336;-33.424;-70.638;2023-12-29T00:36:00;20.10;;;9.18;;
34060;SDS011;20336;-33.424;-70.638;2023-12-29T00:38:27;16.55;;;8.65;;
34060;SDS011;20336;-33.424;-70.638;2023-12-29T00:40:54;16.42;;;8.60;;
34060;SDS011;20336;-33.424;-70.638;2023-12-29T00:43:21;19.25;;;8.48;;
34060;SDS011;20336;-33.424;-70.638;2023-12-29T00:45:48;17.75;;;8.90;;
34060;SDS011;20336;-33.424;-70.638;2023-12-29T00:48:15;17.67;;;8.43;;
34060;SDS011;20336;-33.424;-70.638;2023-12-29T00:50:42;15.00;;;7.68;;
34060;SDS011;20336;-33.424;-70.638;2023-12-29T00:53:09;15.75;;;8.38;;
34060;SDS011;20336;-33.424;-70.638;2023-12-29T00:55:36;19.75;;;8.93;;
34060;SDS011;20336;-33.424;-70.638;2023-12-29T00:58:03;16.15;;;8.73;;
34060;SDS011;20336;-33.424;-70.638;2023-12-29T01:00:30;22.58;;;9.80;;
34060;SDS011;20336;-33.424;-70.638;2023-12-29T01:02:57;22.38;;;10.52;;
34060;SDS011;20336;-33.424;-70.638;2023-12-29T01:05:23;19.10;;;10.13;;
34060;SDS011;20336;-33.424;-70.638;2023-12-29T01:07:50;19.35;;;10.45;;
34060;SDS011;20336;-33.424;-70.638;2023-12-29T01:10:17;22.23;;;9.63;;
34060;SDS011;20336;-33.424;-70.638;2023-12-29T01:12:45;20.08;;;9.35;;
34060;SDS011;20336;-33.424;-70.638;2023-12-29T01:15:11;18.27;;;9.85;;
34060;SDS011;20336;-33.424;-70.638;2023-12-29T01:17:39;17.17;;;9.25;;
34060;SDS011;20336;-33.424;-70.638;2023-12-29T01:20:06;19.75;;;10.10;;
34060;SDS011;20336;-33.424;-70.638;2023-12-29T01:22:33;21.95;;;11.00;;
34060;SDS011;20336;-33.424;-70.638;2023-12-29T01:25:00;22.60;;;10.50;;
34060;SDS011;20336;-33.424;-70.638;2023-12-29T01:27:29;18.20;;;10.65;;
34060;SDS011;20336;-33.424;-70.638;2023-12-29T01:29:56;23.90;;;11.23;;
34060;SDS011;20336;-33.424;-70.638;2023-12-29T01:32:23;20.60;;;10.68;;
34060;SDS011;20336;-33.424;-70.638;2023-12-29T01:34:50;14.70;;;10.43;;
34060;SDS011;20336;-33.424;-70.638;2023-12-29T01:37:17;19.08;;;10.10;;
34060;SDS011;20336;-33.424;-70.638;2023-12-29T01:39:43;19.17;;;10.10;;
34060;SDS011;20336;-33.424;-70.638;2023-12-29T01:42:10;20.58;;;10.65;;
34060;SDS011;20336;-33.424;-70.638;2023-12-29T01:44:37;17.95;;;9.73;;
34060;SDS011;20336;-33.424;-70.638;2023-12-29T01:47:11;24.00;;;11.45;;
34060;SDS011;20336;-33.424;-70.638;2023-12-29T01:49:41;20.90;;;10.98;;
34060;SDS011;20336;-33.424;-70.638;2023-12-29T01:52:09;17.15;;;10.32;;
34060;SDS011;20336;-33.424;-70.638;2023-12-29T01:54:36;20.05;;;10.25;;
34060;SDS011;20336;-33.424;-70.638;2023-12-29T01:57:08;20.70;;;10.80;;
34060;SDS011;20336;-33.424;-70.638;2023-12-29T01:59:35;19.02;;;10.32;;
34060;SDS011;20336;-33.424;-70.638;2023-12-29T02:02:03;18.83;;;9.32;;
34060;SDS011;20336;-33.424;-70.638;2023-12-29T02:04:30;17.42;;;9.50;;
34060;SDS011;20336;-33.424;-70.638;2023-12-29T02:06:57;21.23;;;9.98;;
34060;SDS011;20336;-33.424;-70.638;2023-12-29T02:09:24;18.05;;;9.75;;
34060;SDS011;20336;-33.424;-70.638;2023-12-29T02:11:51;19.00;;;10.52;;
34060;SDS011;20336;-33.424;-70.638;2023-12-29T02:14:18;18.60;;;9.93;;
34060;SDS011;20336;-33.424;-70.638;2023-12-29T02:22:05;16.45;;;8.98;;
34060;SDS011;20336;-33.424;-70.638;2023-12-29T02:24:35;20.42;;;10.20;;
34060;SDS011;20336;-33.424;-70.638;2023-12-29T02:29:35;17.40;;;10.13;;
34060;SDS011;20336;-33.424;-70.638;2023-12-29T02:32:03;20.83;;;10.05;;
34060;SDS011;20336;-33.424;-70.638;2023-12-29T02:34:32;18.13;;;10.30;;
34060;SDS011;20336;-33.424;-70.638;2023-12-29T02:37:00;21.75;;;11.10;;
34060;SDS011;20336;-33.424;-70.638;2023-12-29T02:39:27;23.63;;;11.88;;
34060;SDS011;20336;-33.424;-70.638;2023-12-29T02:41:54;25.17;;;11.93;;
34060;SDS011;20336;-33.424;-70.638;2023-12-29T02:44:21;25.27;;;10.82;;
34060;SDS011;20336;-33.424;-70.638;2023-12-29T02:46:48;20.40;;;10.68;;
34060;SDS011;20336;-33.424;-70.638;2023-12-29T02:49:16;20.08;;;11.43;;
34060;SDS011;20336;-33.424;-70.638;2023-12-29T02:51:43;18.20;;;10.75;;
34060;SDS011;20336;-33.424;-70.638;2023-12-29T02:54:11;22.17;;;10.38;;
34060;SDS011;20336;-33.424;-70.638;2023-12-29T02:56:38;20.90;;;9.95;;
34060;SDS011;20336;-33.424;-70.638;2023-12-29T02:59:05;20.27;;;11.27;;
34060;SDS011;20336;-33.424;-70.638;2023-12-29T03:01:32;19.00;;;11.00;;
34060;SDS011;20336;-33.424;-70.638;2023-12-29T03:04:00;18.08;;;10.10;;
34060;SDS011;20336;-33.424;-70.638;2023-12-29T03:06:27;19.17;;;10.43;;
34060;SDS011;20336;-33.424;-70.638;2023-12-29T03:08:54;19.83;;;10.23;;
34060;SDS011;20336;-33.424;-70.638;2023-12-29T03:11:21;23.77;;;11.95;;
34060;SDS011;20336;-33.424;-70.638;2023-12-29T03:13:48;25.50;;;11.05;;
34060;SDS011;20336;-33.424;-70.638;2023-12-29T03:16:15;21.95;;;11.10;;
34060;SDS011;20336;-33.424;-70.638;2023-12-29T03:18:42;19.42;;;11.05;;
34060;SDS011;20336;-33.424;-70.638;2023-12-29T03:21:09;20.30;;;10.70;;
34060;SDS011;20336;-33.424;-70.638;2023-12-29T03:23:35;20.48;;;11.23;;
34060;SDS011;20336;-33.424;-70.638;2023-12-29T03:26:02;20.90;;;10.57;;
34060;SDS011;20336;-33.424;-70.638;2023-12-29T03:28:29;19.33;;;11.38;;
34060;SDS011;20336;-33.424;-70.638;2023-12-29T03:30:56;25.80;;;12.68;;
34060;SDS011;20336;-33.424;-70.638;2023-12-29T03:33:23;27.90;;;12.25;;
34060;SDS011;20336;-33.424;-70.638;2023-12-29T03:35:50;27.35;;;12.48;;
34060;SDS011;20336;-33.424;-70.638;2023-12-29T03:38:17;25.45;;;12.43;;
34060;SDS011;20336;-33.424;-70.638;2023-12-29T03:40:44;19.85;;;11.65;;
34060;SDS011;20336;-33.424;-70.638;2023-12-29T03:43:11;25.08;;;12.45;;
34060;SDS011;20336;-33.424;-70.638;2023-12-29T03:45:38;21.88;;;13.02;;
34060;SDS011;20336;-33.424;-70.638;2023-12-29T03:48:05;21.02;;;11.63;;
34060;SDS011;20336;-33.424;-70.638;2023-12-29T03:50:34;24.73;;;11.88;;
34060;SDS011;20336;-33.424;-70.638;2023-12-29T03:53:01;22.88;;;12.15;;
34060;SDS011;20336;-33.424;-70.638;2023-12-29T03:55:28;28.63;;;13.38;;
34060;SDS011;20336;-33.424;-70.638;2023-12-29T03:57:55;27.00;;;13.07;;
34060;SDS011;20336;-33.424;-70.638;2023-12-29T04:00:22;24.33;;;12.23;;
34060;SDS011;20336;-33.424;-70.638;2023-12-29T04:02:49;22.23;;;11.15;;
34060;SDS011;20336;-33.424;-70.638;2023-12-29T04:05:16;23.42;;;12.18;;
34060;SDS011;20336;-33.424;-70.638;2023-12-29T04:07:42;20.55;;;11.25;;
34060;SDS011;20336;-33.424;-70.638;2023-12-29T04:10:09;23.83;;;12.48;;
34060;SDS011;20336;-33.424;-70.638;2023-12-29T04:12:36;22.50;;;12.18;;
34060;SDS011;20336;-33.424;-70.638;2023-12-29T04:15:03;30.20;;;13.50;;
34060;SDS011;20336;-33.424;-70.638;2023-12-29T04:17:31;28.40;;;13.48;;
34060;SDS011;20336;-33.424;-70.638;2023-12-29T04:19:58;28.40;;;14.65;;
34060;SDS011;20336;-33.424;-70.638;2023-12-29T04:22:25;22.63;;;13.43;;
34060;SDS011;20336;-33.424;-70.638;2023-12-29T04:24:52;26.98;;;13.85;;
34060;SDS011;20336;-33.424;-70.638;2023-12-29T04:27:19;29.27;;;14.77;;
34060;SDS011;20336;-33.424;-70.638;2023-12-29T04:29:46;26.45;;;15.20;;
34060;SDS011;20336;-33.424;-70.638;2023-12-29T04:32:14;21.85;;;13.55;;
34060;SDS011;20336;-33.424;-70.638;2023-12-29T04:34:41;25.35;;;13.65;;
34060;SDS011;20336;-33.424;-70.638;2023-12-29T04:37:08;27.65;;;13.65;;
34060;SDS011;20336;-33.424;-70.638;2023-12-29T04:39:35;24.83;;;12.93;;
34060;SDS011;20336;-33.424;-70.638;2023-12-29T04:42:02;26.08;;;13.07;;
34060;SDS011;20336;-33.424;-70.638;2023-12-29T04:44:29;26.88;;;13.38;;
34060;SDS011;20336;-33.424;-70.638;2023-12-29T04:46:55;25.77;;;12.43;;
34060;SDS011;20336;-33.424;-70.638;2023-12-29T04:49:22;22.42;;;12.35;;
34060;SDS011;20336;-33.424;-70.638;2023-12-29T04:51:49;42.72;;;13.45;;
34060;SDS011;20336;-33.424;-70.638;2023-12-29T04:54:16;26.90;;;12.82;;
34060;SDS011;20336;-33.424;-70.638;2023-12-29T04:56:43;28.85;;;13.63;;
34060;SDS011;20336;-33.424;-70.638;2023-12-29T04:59:10;32.45;;;14.20;;
34060;SDS011;20336;-33.424;-70.638;2023-12-29T05:01:37;27.63;;;13.98;;
34060;SDS011;20336;-33.424;-70.638;2023-12-29T05:04:04;36.80;;;15.63;;
34060;SDS011;20336;-33.424;-70.638;2023-12-29T05:06:31;31.17;;;14.07;;
34060;SDS011;20336;-33.424;-70.638;2023-12-29T05:08:58;29.35;;;14.00;;
34060;SDS011;20336;-33.424;-70.638;2023-12-29T05:11:25;26.52;;;13.77;;
34060;SDS011;20336;-33.424;-70.638;2023-12-29T05:13:52;29.50;;;13.85;;
34060;SDS011;20336;-33.424;-70.638;2023-12-29T05:16:18;31.83;;;15.35;;
34060;SDS011;20336;-33.424;-70.638;2023-12-29T05:18:46;28.45;;;14.55;;
34060;SDS011;20336;-33.424;-70.638;2023-12-29T05:21:16;28.13;;;13.93;;
34060;SDS011;20336;-33.424;-70.638;2023-12-29T05:23:44;29.13;;;15.43;;
34060;SDS011;20336;-33.424;-70.638;2023-12-29T05:26:11;35.30;;;15.38;;
34060;SDS011;20336;-33.424;-70.638;2023-12-29T05:28:38;29.15;;;14.57;;
34060;SDS011;20336;-33.424;-70.638;2023-12-29T05:31:05;26.88;;;14.02;;
34060;SDS011;20336;-33.424;-70.638;2023-12-29T05:33:32;30.00;;;13.95;;
34060;SDS011;20336;-33.424;-70.638;2023-12-29T05:36:05;28.58;;;14.52;;
34060;SDS011;20336;-33.424;-70.638;2023-12-29T05:38:35;27.45;;;13.85;;
34060;SDS011;20336;-33.424;-70.638;2023-12-29T05:41:03;24.55;;;13.73;;
34060;SDS011;20336;-33.424;-70.638;2023-12-29T05:43:30;29.80;;;14.75;;
34060;SDS011;20336;-33.424;-70.638;2023-12-29T05:45:58;33.70;;;14.00;;
34060;SDS011;20336;-33.424;-70.638;2023-12-29T05:48:25;30.92;;;15.38;;
34060;SDS011;20336;-33.424;-70.638;2023-12-29T05:50:52;29.55;;;13.40;;
34060;SDS011;20336;-33.424;-70.638;2023-12-29T05:53:19;32.22;;;14.80;;
34060;SDS011;20336;-33.424;-70.638;2023-12-29T05:55:46;26.33;;;13.52;;
34060;SDS011;20336;-33.424;-70.638;2023-12-29T05:58:13;27.73;;;14.88;;
34060;SDS011;20336;-33.424;-70.638;2023-12-29T06:00:40;23.00;;;12.80;;
34060;SDS011;20336;-33.424;-70.638;2023-12-29T06:03:07;26.90;;;14.25;;
34060;SDS011;20336;-33.424;-70.638;2023-12-29T06:05:35;25.27;;;12.93;;
34060;SDS011;20336;-33.424;-70.638;2023-12-29T06:08:02;28.00;;;12.70;;
34060;SDS011;20336;-33.424;-70.638;2023-12-29T06:10:29;25.83;;;12.18;;
34060;SDS011;20336;-33.424;-70.638;2023-12-29T06:12:56;19.33;;;10.88;;
34060;SDS011;20336;-33.424;-70.638;2023-12-29T06:15:23;21.55;;;11.80;;
34060;SDS011;20336;-33.424;-70.638;2023-12-29T06:17:50;25.90;;;13.00;;
34060;SDS011;20336;-33.424;-70.638;2023-12-29T06:20:17;23.42;;;11.63;;
34060;SDS011;20336;-33.424;-70.638;2023-12-29T06:22:45;37.55;;;12.75;;
34060;SDS011;20336;-33.424;-70.638;2023-12-29T06:25:12;22.45;;;11.40;;
34060;SDS011;20336;-33.424;-70.638;2023-12-29T06:27:40;27.65;;;11.73;;
34060;SDS011;20336;-33.424;-70.638;2023-12-29T06:30:07;25.20;;;12.73;;
34060;SDS011;20336;-33.424;-70.638;2023-12-29T06:32:36;24.15;;;12.13;;
34060;SDS011;20336;-33.424;-70.638;2023-12-29T06:35:03;23.58;;;11.98;;
34060;SDS011;20336;-33.424;-70.638;2023-12-29T06:37:30;21.67;;;11.40;;
34060;SDS011;20336;-33.424;-70.638;2023-12-29T06:39:58;23.27;;;11.45;;
34060;SDS011;20336;-33.424;-70.638;2023-12-29T06:42:25;28.95;;;12.13;;
34060;SDS011;20336;-33.424;-70.638;2023-12-29T06:44:52;27.40;;;11.98;;
34060;SDS011;20336;-33.424;-70.638;2023-12-29T06:47:19;26.83;;;12.70;;
34060;SDS011;20336;-33.424;-70.638;2023-12-29T06:49:47;25.15;;;12.38;;
34060;SDS011;20336;-33.424;-70.638;2023-12-29T06:52:15;30.65;;;13.18;;
34060;SDS011;20336;-33.424;-70.638;2023-12-29T06:54:42;20.73;;;11.07;;
34060;SDS011;20336;-33.424;-70.638;2023-12-29T06:57:09;22.25;;;12.13;;
34060;SDS011;20336;-33.424;-70.638;2023-12-29T06:59:36;30.08;;;12.48;;
34060;SDS011;20336;-33.424;-70.638;2023-12-29T07:02:03;22.90;;;12.57;;
34060;SDS011;20336;-33.424;-70.638;2023-12-29T07:04:30;27.35;;;12.95;;
34060;SDS011;20336;-33.424;-70.638;2023-12-29T07:07:00;26.02;;;13.07;;
34060;SDS011;20336;-33.424;-70.638;2023-12-29T07:09:27;27.02;;;12.30;;
34060;SDS011;20336;-33.424;-70.638;2023-12-29T07:11:54;22.98;;;12.73;;
34060;SDS011;20336;-33.424;-70.638;2023-12-29T07:14:21;27.15;;;12.70;;
34060;SDS011;20336;-33.424;-70.638;2023-12-29T07:16:48;25.95;;;12.65;;
34060;SDS011;20336;-33.424;-70.638;2023-12-29T07:19:15;23.90;;;12.85;;
34060;SDS011;20336;-33.424;-70.638;2023-12-29T07:21:42;29.95;;;13.80;;
34060;SDS011;20336;-33.424;-70.638;2023-12-29T07:24:09;32.17;;;12.10;;
34060;SDS011;20336;-33.424;-70.638;2023-12-29T07:26:36;28.45;;;12.82;;
34060;SDS011;20336;-33.424;-70.638;2023-12-29T07:29:03;28.48;;;14.00;;
34060;SDS011;20336;-33.424;-70.638;2023-12-29T07:31:31;30.88;;;13.88;;
34060;SDS011;20336;-33.424;-70.638;2023-12-29T07:33:59;26.48;;;14.48;;
34060;SDS011;20336;-33.424;-70.638;2023-12-29T07:36:26;25.42;;;12.68;;
34060;SDS011;20336;-33.424;-70.638;2023-12-29T07:38:53;27.67;;;13.45;;
34060;SDS011;20336;-33.424;-70.638;2023-12-29T07:41:20;26.63;;;13.55;;
34060;SDS011;20336;-33.424;-70.638;2023-12-29T07:43:47;32.72;;;14.80;;
34060;SDS011;20336;-33.424;-70.638;2023-12-29T07:46:23;27.70;;;14.68;;
34060;SDS011;20336;-33.424;-70.638;2023-12-29T07:48:50;25.27;;;12.68;;
34060;SDS011;20336;-33.424;-70.638;2023-12-29T07:51:17;26.20;;;13.88;;
34060;SDS011;20336;-33.424;-70.638;2023-12-29T07:53:44;24.25;;;12.50;;
34060;SDS011;20336;-33.424;-70.638;2023-12-29T07:56:11;31.35;;;15.48;;
34060;SDS011;20336;-33.424;-70.638;2023-12-29T07:58:38;28.27;;;13.30;;
34060;SDS011;20336;-33.424;-70.638;2023-12-29T08:01:05;25.88;;;13.57;;
34060;SDS011;20336;-33.424;-70.638;2023-12-29T08:03:32;27.70;;;13.95;;
34060;SDS011;20336;-33.424;-70.638;2023-12-29T08:05:59;25.67;;;13.02;;
34060;SDS011;20336;-33.424;-70.638;2023-12-29T08:08:26;22.88;;;13.30;;
34060;SDS011;20336;-33.424;-70.638;2023-12-29T08:10:53;27.95;;;13.15;;
34060;SDS011;20336;-33.424;-70.638;2023-12-29T08:13:20;26.35;;;13.57;;
34060;SDS011;20336;-33.424;-70.638;2023-12-29T08:15:47;26.88;;;13.75;;
34060;SDS011;20336;-33.424;-70.638;2023-12-29T08:18:14;25.20;;;13.70;;
34060;SDS011;20336;-33.424;-70.638;2023-12-29T08:20:41;32.28;;;14.30;;
34060;SDS011;20336;-33.424;-70.638;2023-12-29T08:23:08;25.17;;;13.25;;
34060;SDS011;20336;-33.424;-70.638;2023-12-29T08:25:35;27.20;;;13.88;;
34060;SDS011;20336;-33.424;-70.638;2023-12-29T08:28:02;29.30;;;14.98;;
34060;SDS011;20336;-33.424;-70.638;2023-12-29T08:30:30;26.27;;;13.98;;
34060;SDS011;20336;-33.424;-70.638;2023-12-29T08:33:02;31.88;;;14.63;;
34060;SDS011;20336;-33.424;-70.638;2023-12-29T08:35:29;24.85;;;13.90;;
34060;SDS011;20336;-33.424;-70.638;2023-12-29T08:37:56;33.97;;;14.48;;
34060;SDS011;20336;-33.424;-70.638;2023-12-29T08:40:23;27.42;;;15.38;;
34060;SDS011;20336;-33.424;-70.638;2023-12-29T08:42:50;27.38;;;15.90;;
34060;SDS011;20336;-33.424;-70.638;2023-12-29T08:45:18;35.38;;;19.38;;
34060;SDS011;20336;-33.424;-70.638;2023-12-29T08:47:45;38.45;;;20.52;;
34060;SDS011;20336;-33.424;-70.638;2023-12-29T08:50:12;34.50;;;19.80;;
34060;SDS011;20336;-33.424;-70.638;2023-12-29T08:52:40;37.25;;;21.05;;
34060;SDS011;20336;-33.424;-70.638;2023-12-29T08:55:07;38.70;;;19.90;;
34060;SDS011;20336;-33.424;-70.638;2023-12-29T08:57:35;40.22;;;20.55;;
34060;SDS011;20336;-33.424;-70.638;2023-12-29T09:00:02;32.58;;;18.13;;
34060;SDS011;20336;-33.424;-70.638;2023-12-29T09:02:29;35.45;;;17.25;;
34060;SDS011;20336;-33.424;-70.638;2023-12-29T09:04:56;31.67;;;16.63;;
34060;SDS011;20336;-33.424;-70.638;2023-12-29T09:07:23;36.35;;;16.30;;
34060;SDS011;20336;-33.424;-70.638;2023-12-29T09:09:50;32.85;;;14.98;;
34060;SDS011;20336;-33.424;-70.638;2023-12-29T09:12:17;24.63;;;14.43;;
34060;SDS011;20336;-33.424;-70.638;2023-12-29T09:14:44;29.40;;;15.20;;
34060;SDS011;20336;-33.424;-70.638;2023-12-29T09:17:11;31.90;;;15.63;;
34060;SDS011;20336;-33.424;-70.638;2023-12-29T09:19:38;30.73;;;16.38;;
34060;SDS011;20336;-33.424;-70.638;2023-12-29T09:22:05;28.45;;;16.02;;
34060;SDS011;20336;-33.424;-70.638;2023-12-29T09:24:32;35.15;;;16.35;;
34060;SDS011;20336;-33.424;-70.638;2023-12-29T09:26:59;28.35;;;15.32;;
34060;SDS011;20336;-33.424;-70.638;2023-12-29T09:29:26;40.55;;;15.23;;
34060;SDS011;20336;-33.424;-70.638;2023-12-29T09:31:53;26.83;;;14.90;;
34060;SDS011;20336;-33.424;-70.638;2023-12-29T09:34:20;25.88;;;14.63;;
34060;SDS011;20336;-33.424;-70.638;2023-12-29T09:36:46;32.60;;;14.27;;
34060;SDS011;20336;-33.424;-70.638;2023-12-29T09:39:13;25.42;;;15.65;;
34060;SDS011;20336;-33.424;-70.638;2023-12-29T09:41:42;27.38;;;14.50;;
34060;SDS011;20336;-33.424;-70.638;2023-12-29T09:44:12;31.00;;;14.75;;
34060;SDS011;20336;-33.424;-70.638;2023-12-29T09:46:40;25.83;;;14.93;;
34060;SDS011;20336;-33.424;-70.638;2023-12-29T09:49:08;25.85;;;13.57;;
34060;SDS011;20336;-33.424;-70.638;2023-12-29T09:51:36;27.58;;;15.00;;
34060;SDS011;20336;-33.424;-70.638;2023-12-29T09:54:03;28.98;;;14.38;;
34060;SDS011;20336;-33.424;-70.638;2023-12-29T09:56:31;33.55;;;15.57;;
34060;SDS011;20336;-33.424;-70.638;2023-12-29T09:58:58;31.27;;;15.55;;
34060;SDS011;20336;-33.424;-70.638;2023-12-29T10:01:25;28.70;;;15.68;;
34060;SDS011;20336;-33.424;-70.638;2023-12-29T10:03:55;31.90;;;15.30;;
34060;SDS011;20336;-33.424;-70.638;2023-12-29T10:06:25;30.23;;;16.08;;
34060;SDS011;20336;-33.424;-70.638;2023-12-29T10:08:52;33.75;;;14.50;;
34060;SDS011;20336;-33.424;-70.638;2023-12-29T10:11:22;25.77;;;14.23;;
34060;SDS011;20336;-33.424;-70.638;2023-12-29T10:13:53;30.33;;;15.38;;
34060;SDS011;20336;-33.424;-70.638;2023-12-29T10:16:38;33.38;;;16.60;;
34060;SDS011;20336;-33.424;-70.638;2023-12-29T10:22:15;31.00;;;16.50;;
34060;SDS011;20336;-33.424;-70.638;2023-12-29T10:24:44;32.58;;;18.48;;
34060;SDS011;20336;-33.424;-70.638;2023-12-29T10:27:12;34.80;;;18.50;;
34060;SDS011;20336;-33.424;-70.638;2023-12-29T10:29:39;35.88;;;19.30;;
34060;SDS011;20336;-33.424;-70.638;2023-12-29T10:32:06;32.08;;;18.25;;
34060;SDS011;20336;-33.424;-70.638;2023-12-29T10:34:34;36.35;;;19.13;;
34060;SDS011;20336;-33.424;-70.638;2023-12-29T10:37:02;33.35;;;19.27;;
34060;SDS011;20336;-33.424;-70.638;2023-12-29T10:39:37;38.45;;;20.73;;
34060;SDS011;20336;-33.424;-70.638;2023-12-29T10:42:05;39.95;;;20.70;;
34060;SDS011;20336;-33.424;-70.638;2023-12-29T10:44:33;31.95;;;18.50;;
34060;SDS011;20336;-33.424;-70.638;2023-12-29T10:47:10;32.97;;;17.98;;
34060;SDS011;20336;-33.424;-70.638;2023-12-29T10:49:37;33.75;;;19.58;;
34060;SDS011;20336;-33.424;-70.638;2023-12-29T10:52:11;32.17;;;18.25;;
34060;SDS011;20336;-33.424;-70.638;2023-12-29T10:54:40;39.30;;;19.58;;
34060;SDS011;20336;-33.424;-70.638;2023-12-29T10:57:09;36.20;;;19.17;;
34060;SDS011;20336;-33.424;-70.638;2023-12-29T10:59:37;34.75;;;19.92;;
34060;SDS011;20336;-33.424;-70.638;2023-12-29T11:02:04;31.67;;;18.63;;
34060;SDS011;20336;-33.424;-70.638;2023-12-29T11:04:33;39.55;;;20.10;;
34060;SDS011;20336;-33.424;-70.638;2023-12-29T11:07:00;31.40;;;19.00;;
34060;SDS011;20336;-33.424;-70.638;2023-12-29T11:09:31;33.75;;;18.90;;
34060;SDS011;20336;-33.424;-70.638;2023-12-29T11:12:00;30.67;;;17.90;;
34060;SDS011;20336;-33.424;-70.638;2023-12-29T11:14:27;34.85;;;19.55;;
34060;SDS011;20336;-33.424;-70.638;2023-12-29T11:16:55;34.92;;;18.65;;
34060;SDS011;20336;-33.424;-70.638;2023-12-29T11:19:22;31.90;;;18.58;;
34060;SDS011;20336;-33.424;-70.638;2023-12-29T11:21:51;34.60;;;18.38;;
34060;SDS011;20336;-33.424;-70.638;2023-12-29T11:24:19;38.25;;;22.02;;
34060;SDS011;20336;-33.424;-70.638;2023-12-29T11:26:46;37.28;;;19.52;;
34060;SDS011;20336;-33.424;-70.638;2023-12-29T11:29:13;38.40;;;21.20;;
34060;SDS011;20336;-33.424;-70.638;2023-12-29T11:31:40;39.53;;;20.95;;
34060;SDS011;20336;-33.424;-70.638;2023-12-29T11:34:23;32.30;;;19.63;;
34060;SDS011;20336;-33.424;-70.638;2023-12-29T11:36:54;33.88;;;20.63;;
34060;SDS011;20336;-33.424;-70.638;2023-12-29T11:39:27;35.85;;;19.58;;
34060;SDS011;20336;-33.424;-70.638;2023-12-29T11:44:56;32.05;;;20.52;;
34060;SDS011;20336;-33.424;-70.638;2023-12-29T11:47:36;34.67;;;18.73;;
34060;SDS011;20336;-33.424;-70.638;2023-12-29T11:50:03;30.60;;;19.08;;
34060;SDS011;20336;-33.424;-70.638;2023-12-29T11:52:34;37.35;;;20.73;;
34060;SDS011;20336;-33.424;-70.638;2023-12-29T11:55:13;42.25;;;19.85;;
34060;SDS011;20336;-33.424;-70.638;2023-12-29T11:57:46;30.73;;;18.27;;
34060;SDS011;20336;-33.424;-70.638;2023-12-29T12:00:13;33.47;;;17.90;;
34060;SDS011;20336;-33.424;-70.638;2023-12-29T12:02:41;35.47;;;18.92;;
34060;SDS011;20336;-33.424;-70.638;2023-12-29T12:05:12;33.90;;;19.15;;
34060;SDS011;20336;-33.424;-70.638;2023-12-29T12:12:46;39.67;;;21.13;;
34060;SDS011;20336;-33.424;-70.638;2023-12-29T12:17:57;35.80;;;19.70;;
34060;SDS011;20336;-33.424;-70.638;2023-12-29T12:20:24;40.45;;;20.58;;
34060;SDS011;20336;-33.424;-70.638;2023-12-29T12:22:59;32.78;;;20.08;;
34060;SDS011;20336;-33.424;-70.638;2023-12-29T12:25:26;37.28;;;19.17;;
34060;SDS011;20336;-33.424;-70.638;2023-12-29T12:27:54;38.95;;;22.15;;
34060;SDS011;20336;-33.424;-70.638;2023-12-29T12:30:21;41.72;;;22.33;;
34060;SDS011;20336;-33.424;-70.638;2023-12-29T12:33:06;37.58;;;22.70;;
34060;SDS011;20336;-33.424;-70.638;2023-12-29T12:35:36;45.53;;;25.23;;
34060;SDS011;20336;-33.424;-70.638;2023-12-29T12:38:21;42.58;;;23.45;;
34060;SDS011;20336;-33.424;-70.638;2023-12-29T12:40:49;44.63;;;22.65;;
34060;SDS011;20336;-33.424;-70.638;2023-12-29T12:43:17;47.60;;;24.02;;
34060;SDS011;20336;-33.424;-70.638;2023-12-29T12:45:48;51.60;;;25.75;;
34060;SDS011;20336;-33.424;-70.638;2023-12-29T12:48:19;50.25;;;27.42;;
34060;SDS011;20336;-33.424;-70.638;2023-12-29T12:50:47;50.50;;;26.88;;
34060;SDS011;20336;-33.424;-70.638;2023-12-29T12:53:15;46.58;;;26.38;;
34060;SDS011;20336;-33.424;-70.638;2023-12-29T12:55:49;45.53;;;25.25;;
34060;SDS011;20336;-33.424;-70.638;2023-12-29T12:58:20;54.03;;;27.02;;
34060;SDS011;20336;-33.424;-70.638;2023-12-29T13:00:47;58.92;;;29.08;;
34060;SDS011;20336;-33.424;-70.638;2023-12-29T13:03:14;57.53;;;30.23;;
34060;SDS011;20336;-33.424;-70.638;2023-12-29T13:05:42;49.78;;;26.38;;
34060;SDS011;20336;-33.424;-70.638;2023-12-29T13:08:09;56.25;;;28.45;;
34060;SDS011;20336;-33.424;-70.638;2023-12-29T13:10:45;56.20;;;28.48;;
34060;SDS011;20336;-33.424;-70.638;2023-12-29T13:13:12;52.45;;;27.73;;
34060;SDS011;20336;-33.424;-70.638;2023-12-29T13:15:46;64.85;;;30.65;;
34060;SDS011;20336;-33.424;-70.638;2023-12-29T13:18:14;54.35;;;28.95;;
34060;SDS011;20336;-33.424;-70.638;2023-12-29T13:20:47;58.10;;;31.52;;
34060;SDS011;20336;-33.424;-70.638;2023-12-29T13:23:17;50.80;;;30.80;;
34060;SDS011;20336;-33.424;-70.638;2023-12-29T13:25:44;48.10;;;27.23;;
34060;SDS011;20336;-33.424;-70.638;2023-12-29T13:28:13;57.47;;;28.88;;
34060;SDS011;20336;-33.424;-70.638;2023-12-29T13:30:41;58.65;;;29.35;;
34060;SDS011;20336;-33.424;-70.638;2023-12-29T13:33:13;55.45;;;29.20;;
34060;SDS011;20336;-33.424;-70.638;2023-12-29T13:35:47;64.50;;;31.67;;
34060;SDS011;20336;-33.424;-70.638;2023-12-29T13:38:18;60.50;;;31.58;;
34060;SDS011;20336;-33.424;-70.638;2023-12-29T13:40:47;56.58;;;29.20;;
34060;SDS011;20336;-33.424;-70.638;2023-12-29T13:43:18;68.38;;;32.58;;
34060;SDS011;20336;-33.424;-70.638;2023-12-29T13:45:46;56.17;;;29.88;;
34060;SDS011;20336;-33.424;-70.638;2023-12-29T13:48:13;63.50;;;31.63;;
34060;SDS011;20336;-33.424;-70.638;2023-12-29T13:50:44;51.08;;;27.45;;
34060;SDS011;20336;-33.424;-70.638;2023-12-29T13:53:18;56.08;;;28.80;;
34060;SDS011;20336;-33.424;-70.638;2023-12-29T13:55:45;57.22;;;29.92;;
34060;SDS011;20336;-33.424;-70.638;2023-12-29T13:58:12;50.97;;;28.92;;
34060;SDS011;20336;-33.424;-70.638;2023-12-29T14:00:40;58.72;;;32.03;;
34060;SDS011;20336;-33.424;-70.638;2023-12-29T14:03:14;56.05;;;30.40;;
34060;SDS011;20336;-33.424;-70.638;2023-12-29T14:05:51;59.60;;;30.17;;
34060;SDS011;20336;-33.424;-70.638;2023-12-29T14:08:25;57.05;;;29.67;;
34060;SDS011;20336;-33.424;-70.638;2023-12-29T14:10:53;60.60;;;32.33;;
34060;SDS011;20336;-33.424;-70.638;2023-12-29T14:13:20;54.10;;;30.63;;